createdAt,value
2023-08-23T00:03:38.224Z,100.00
2023-08-23T00:06:07.234Z,100.00
2023-08-23T00:08:34.867Z,100.00
2023-08-23T00:11:05.728Z,100.00
2023-08-23T00:13:33.438Z,100.00
2023-08-23T00:16:01.018Z,100.00
2023-08-23T00:18:28.666Z,100.00
2023-08-23T00:20:58.665Z,100.00
2023-08-23T00:23:27.687Z,100.00
2023-08-23T00:25:55.351Z,100.00
2023-08-23T00:28:23.100Z,100.00
2023-08-23T00:30:51.713Z,100.00
2023-08-23T00:33:19.637Z,100.00
2023-08-23T00:35:47.501Z,100.00
2023-08-23T00:38:15.592Z,100.00
2023-08-23T00:40:45.192Z,100.00
2023-08-23T00:43:12.863Z,100.00
2023-08-23T00:45:41.957Z,100.00
2023-08-23T00:48:13.489Z,100.00
2023-08-23T00:50:44.861Z,100.00
2023-08-23T00:53:14.384Z,100.00
2023-08-23T00:55:42.192Z,100.00
2023-08-23T00:58:11.666Z,100.00
2023-08-23T01:00:42.265Z,100.00
2023-08-23T01:03:10.312Z,100.00
2023-08-23T01:05:49.857Z,100.00
2023-08-23T01:08:25.532Z,100.00
2023-08-23T01:10:57.417Z,100.00
2023-08-23T01:13:31.504Z,100.00
2023-08-23T01:16:00.922Z,100.00
2023-08-23T01:18:29.592Z,100.00
2023-08-23T01:20:59.287Z,100.00
2023-08-23T01:23:31.023Z,100.00
2023-08-23T01:25:58.666Z,100.00
2023-08-23T01:28:26.261Z,100.00
2023-08-23T01:30:54.632Z,100.00
2023-08-23T01:33:31.271Z,100.00
2023-08-23T01:36:03.974Z,100.00
2023-08-23T01:38:36.036Z,100.00
2023-08-23T01:41:04.949Z,100.00
2023-08-23T01:43:32.646Z,100.00
2023-08-23T01:46:00.335Z,100.00
2023-08-23T01:48:29.898Z,100.00
2023-08-23T01:50:57.534Z,100.00
2023-08-23T01:53:25.200Z,100.00
2023-08-23T01:55:54.229Z,100.00
2023-08-23T01:58:21.884Z,100.00
2023-08-23T02:00:49.520Z,100.00
2023-08-23T02:03:17.462Z,100.00
2023-08-23T02:05:45.255Z,100.00
2023-08-23T02:08:13.226Z,100.00
2023-08-23T02:14:48.098Z,100.00
2023-08-23T02:17:15.729Z,100.00
2023-08-23T02:19:43.522Z,100.00
2023-08-23T02:22:11.189Z,100.00
2023-08-23T02:24:38.832Z,100.00
2023-08-23T02:27:06.608Z,100.00
2023-08-23T02:29:34.240Z,100.00
2023-08-23T02:32:03.427Z,100.00
2023-08-23T02:34:31.178Z,100.00
2023-08-23T02:36:57.826Z,100.00
2023-08-23T02:39:25.442Z,100.00
2023-08-23T02:41:53.112Z,100.00
2023-08-23T02:44:22.017Z,100.00
2023-08-23T02:46:49.768Z,100.00
2023-08-23T02:49:18.782Z,100.00
2023-08-23T02:51:46.400Z,100.00
2023-08-23T02:54:14.022Z,100.00
2023-08-23T02:56:41.681Z,100.00
2023-08-23T02:59:09.296Z,100.00
2023-08-23T03:01:37.120Z,100.00
2023-08-23T03:04:05.170Z,100.00
2023-08-23T03:06:34.175Z,100.00
2023-08-23T03:09:01.820Z,100.00
2023-08-23T03:11:29.477Z,100.00
2023-08-23T03:13:58.402Z,100.00
2023-08-23T03:16:26.117Z,100.00
2023-08-23T03:18:54.484Z,100.00
2023-08-23T03:21:22.080Z,100.00
2023-08-23T03:23:51.847Z,100.00
2023-08-23T03:26:19.542Z,100.00
2023-08-23T03:28:48.730Z,100.00
2023-08-23T03:31:18.249Z,100.00
2023-08-23T03:33:47.060Z,100.00
2023-08-23T03:36:14.756Z,100.00
2023-08-23T03:38:42.450Z,100.00
2023-08-23T03:41:15.535Z,100.00
2023-08-23T03:43:43.460Z,100.00
2023-08-23T03:46:11.237Z,100.00
2023-08-23T03:48:38.939Z,100.00
2023-08-23T03:51:06.569Z,100.00
2023-08-23T03:53:34.223Z,100.00
2023-08-23T03:56:03.641Z,100.00
2023-08-23T03:58:32.684Z,100.00
2023-08-23T04:01:00.360Z,100.00
2023-08-23T04:03:28.201Z,100.00
2023-08-23T04:05:55.992Z,100.00
2023-08-23T04:08:23.586Z,100.00
2023-08-23T04:10:52.114Z,100.00
2023-08-23T04:13:19.842Z,100.00
2023-08-23T04:15:50.284Z,100.00
2023-08-23T04:18:18.018Z,100.00
2023-08-23T04:20:45.716Z,100.00
2023-08-23T04:23:13.400Z,100.00
2023-08-23T04:25:41.041Z,100.00
2023-08-23T04:28:08.655Z,100.00
2023-08-23T04:30:36.304Z,100.00
2023-08-23T04:33:05.748Z,100.00
2023-08-23T04:35:33.493Z,100.00
2023-08-23T04:38:01.130Z,100.00
2023-08-23T04:40:30.175Z,100.00
2023-08-23T04:42:57.897Z,100.00
2023-08-23T04:45:28.394Z,100.00
2023-08-23T04:47:57.507Z,100.00
2023-08-23T04:50:26.552Z,100.00
2023-08-23T04:52:54.246Z,100.00
2023-08-23T04:55:21.918Z,100.00
2023-08-23T04:57:49.869Z,100.00
2023-08-23T05:00:18.020Z,100.00
2023-08-23T05:02:45.696Z,100.00
2023-08-23T05:05:13.479Z,100.00
2023-08-23T05:07:42.576Z,100.00
2023-08-23T05:10:10.901Z,100.00
2023-08-23T05:12:39.522Z,100.00
2023-08-23T05:15:08.550Z,100.00
2023-08-23T05:17:38.914Z,100.00
2023-08-23T05:20:09.428Z,100.00
2023-08-23T05:22:37.180Z,100.00
2023-08-23T05:25:06.665Z,100.00
2023-08-23T05:27:34.436Z,100.00
2023-08-23T05:30:05.016Z,100.00
2023-08-23T05:32:33.063Z,100.00
2023-08-23T05:35:00.883Z,100.00
2023-08-23T05:37:28.527Z,100.00
2023-08-23T05:39:56.245Z,100.00
2023-08-23T05:42:25.723Z,100.00
2023-08-23T05:44:53.456Z,100.00
2023-08-23T05:47:21.235Z,100.00
2023-08-23T05:49:49.297Z,100.00
2023-08-23T05:52:16.950Z,100.00
2023-08-23T05:54:44.633Z,100.00
2023-08-23T05:57:12.308Z,100.00
2023-08-23T05:59:41.461Z,100.00
2023-08-23T06:02:11.323Z,100.00
2023-08-23T06:04:40.694Z,100.00
2023-08-23T06:07:08.555Z,100.00
2023-08-23T06:09:36.234Z,100.00
2023-08-23T06:12:04.147Z,100.00
2023-08-23T06:14:31.853Z,100.00
2023-08-23T06:17:00.960Z,100.00
2023-08-23T06:19:28.813Z,100.00
2023-08-23T06:21:56.480Z,100.00
2023-08-23T06:24:24.134Z,100.00
2023-08-23T06:26:51.786Z,100.00
2023-08-23T06:29:19.574Z,100.00
2023-08-23T06:31:47.390Z,100.00
2023-08-23T06:34:16.346Z,100.00
2023-08-23T06:36:44.033Z,100.00
2023-08-23T06:39:23.866Z,100.00
2023-08-23T06:41:59.822Z,100.00
2023-08-23T06:44:27.479Z,100.00
2023-08-23T06:46:55.147Z,100.00
2023-08-23T06:49:42.635Z,100.00
2023-08-23T06:52:10.745Z,100.00
2023-08-23T06:54:38.382Z,100.00
2023-08-23T06:57:06.546Z,100.00
2023-08-23T06:59:34.222Z,100.00
2023-08-23T07:02:02.083Z,100.00
2023-08-23T07:04:31.253Z,100.00
2023-08-23T07:06:59.318Z,100.00
2023-08-23T07:09:26.921Z,100.00
2023-08-23T07:11:54.562Z,100.00
2023-08-23T07:14:22.217Z,100.00
2023-08-23T07:16:49.906Z,100.00
2023-08-23T07:19:17.575Z,100.00
2023-08-23T07:21:46.534Z,100.00
2023-08-23T07:24:16.128Z,100.00
2023-08-23T07:26:43.776Z,100.00
2023-08-23T07:29:13.110Z,100.00
2023-08-23T07:31:40.999Z,100.00
2023-08-23T07:34:08.621Z,100.00
2023-08-23T07:36:36.682Z,100.00
2023-08-23T07:39:05.761Z,100.00
2023-08-23T07:41:33.402Z,100.00
2023-08-23T07:44:01.114Z,100.00
2023-08-23T07:46:29.106Z,100.00
2023-08-23T07:48:56.838Z,100.00
2023-08-23T07:51:24.552Z,100.00
2023-08-23T07:53:52.227Z,100.00
2023-08-23T07:56:21.221Z,100.00
2023-08-23T07:58:48.977Z,100.00
2023-08-23T08:01:16.663Z,100.00
2023-08-23T08:03:44.386Z,100.00
2023-08-23T08:06:12.590Z,100.00
2023-08-23T08:08:43.783Z,100.00
2023-08-23T08:11:12.311Z,100.00
2023-08-23T08:13:41.395Z,100.00
2023-08-23T08:16:10.316Z,100.00
2023-08-23T08:18:38.089Z,100.00
2023-08-23T08:21:05.885Z,100.00
2023-08-23T08:23:33.682Z,100.00
2023-08-23T08:26:01.307Z,100.00
2023-08-23T08:28:29.005Z,100.00
2023-08-23T08:30:57.998Z,100.00
2023-08-23T08:33:25.812Z,100.00
2023-08-23T08:35:53.417Z,100.00
2023-08-23T08:38:23.239Z,100.00
2023-08-23T08:40:50.945Z,100.00
2023-08-23T08:43:19.179Z,100.00
2023-08-23T08:45:47.024Z,100.00
2023-08-23T08:48:17.062Z,100.00
2023-08-23T08:50:44.875Z,100.00
2023-08-23T08:53:16.857Z,100.00
2023-08-23T08:55:46.972Z,100.00
2023-08-23T08:58:20.824Z,100.00
2023-08-23T09:00:50.763Z,100.00
2023-08-23T09:03:20.251Z,100.00
2023-08-23T09:05:49.399Z,100.00
2023-08-23T09:08:17.418Z,100.00
2023-08-23T09:10:45.128Z,100.00
2023-08-23T09:13:12.901Z,100.00
2023-08-23T09:15:40.717Z,100.00
2023-08-23T09:18:08.681Z,100.00
2023-08-23T09:20:38.582Z,100.00
2023-08-23T09:23:06.573Z,100.00
2023-08-23T09:25:34.185Z,100.00
2023-08-23T09:28:01.853Z,100.00
2023-08-23T09:30:29.530Z,100.00
2023-08-23T09:32:59.309Z,100.00
2023-08-23T09:35:27.049Z,100.00
2023-08-23T09:37:56.095Z,100.00
2023-08-23T09:40:26.073Z,100.00
2023-08-23T09:42:57.256Z,100.00
2023-08-23T09:45:27.474Z,100.00
2023-08-23T09:47:58.218Z,100.00
2023-08-23T09:50:27.429Z,100.00
2023-08-23T09:53:01.559Z,100.00
2023-08-23T09:55:31.193Z,100.00
2023-08-23T09:57:59.290Z,100.00
2023-08-23T10:00:28.132Z,100.00
2023-08-23T10:02:57.643Z,100.00
2023-08-23T10:05:28.661Z,100.00
2023-08-23T10:07:59.016Z,100.00
2023-08-23T10:10:28.246Z,100.00
2023-08-23T10:13:00.097Z,100.00
2023-08-23T10:15:31.930Z,100.00
2023-08-23T10:18:01.598Z,100.00
2023-08-23T10:20:29.445Z,100.00
2023-08-23T10:22:58.652Z,100.00
2023-08-23T10:25:26.398Z,100.00
2023-08-23T10:27:55.979Z,100.00
2023-08-23T10:30:25.471Z,100.00
2023-08-23T10:32:53.852Z,100.00
2023-08-23T10:35:24.676Z,100.00
2023-08-23T10:37:54.862Z,97.32
2023-08-23T10:40:24.112Z,100.00
2023-08-23T10:42:52.222Z,100.00
2023-08-23T10:45:20.028Z,93.35
2023-08-23T10:47:51.871Z,97.21
2023-08-23T10:50:20.760Z,92.94
2023-08-23T10:52:49.281Z,92.29
2023-08-23T10:55:16.895Z,94.23
2023-08-23T10:57:46.909Z,95.02
2023-08-23T11:00:15.798Z,91.42
2023-08-23T11:02:43.855Z,87.70
2023-08-23T11:05:12.507Z,90.69
2023-08-23T11:07:40.224Z,92.79
2023-08-23T11:10:10.720Z,84.68
2023-08-23T11:12:39.504Z,79.33
2023-08-23T11:15:09.869Z,81.55
2023-08-23T11:17:38.778Z,79.31
2023-08-23T11:20:09.437Z,79.08
2023-08-23T11:22:37.173Z,74.40
2023-08-23T11:25:05.388Z,78.86
2023-08-23T11:27:32.983Z,76.05
2023-08-23T11:30:00.891Z,74.45
2023-08-23T11:32:31.774Z,75.17
2023-08-23T11:35:05.450Z,75.02
2023-08-23T11:37:33.698Z,74.78
2023-08-23T11:40:08.892Z,72.79
2023-08-23T11:42:37.635Z,70.30
2023-08-23T11:45:05.995Z,71.32
2023-08-23T11:47:35.586Z,74.36
2023-08-23T11:50:03.558Z,72.43
2023-08-23T11:52:31.928Z,72.35
2023-08-23T11:55:00.481Z,68.65
2023-08-23T11:57:40.065Z,68.73
2023-08-23T12:00:09.297Z,66.91
2023-08-23T12:02:41.480Z,65.07
2023-08-23T12:05:10.948Z,63.13
2023-08-23T12:07:39.239Z,58.96
2023-08-23T12:10:09.777Z,59.20
2023-08-23T12:12:37.873Z,60.72
2023-08-23T12:15:09.557Z,59.80
2023-08-23T12:17:37.277Z,63.92
2023-08-23T12:20:08.822Z,60.01
2023-08-23T12:22:36.527Z,59.64
2023-08-23T12:25:05.194Z,57.22
2023-08-23T12:27:32.855Z,55.36
2023-08-23T12:30:00.661Z,55.14
2023-08-23T12:32:28.407Z,57.48
2023-08-23T12:34:56.035Z,54.43
2023-08-23T12:37:25.117Z,56.09
2023-08-23T12:39:52.861Z,51.38
2023-08-23T12:42:20.549Z,51.41
2023-08-23T12:44:48.219Z,51.39
2023-08-23T12:47:15.980Z,49.99
2023-08-23T12:49:43.660Z,49.47
2023-08-23T12:52:13.073Z,49.60
2023-08-23T12:54:42.042Z,51.00
2023-08-23T12:57:09.659Z,50.58
2023-08-23T12:59:37.274Z,49.93
2023-08-23T13:02:05.113Z,48.01
2023-08-23T13:04:33.006Z,47.60
2023-08-23T13:07:00.592Z,49.38
2023-08-23T13:09:28.244Z,51.13
2023-08-23T13:11:57.250Z,48.39
2023-08-23T13:14:25.210Z,49.28
2023-08-23T13:16:52.830Z,49.83
2023-08-23T13:19:23.202Z,49.36
2023-08-23T13:21:50.814Z,52.10
2023-08-23T13:24:22.250Z,51.66
2023-08-23T13:26:50.750Z,47.97
2023-08-23T13:29:19.746Z,49.54
2023-08-23T13:31:47.434Z,50.28
2023-08-23T13:34:15.419Z,49.49
2023-08-23T13:36:44.516Z,50.75
2023-08-23T13:39:13.095Z,48.72
2023-08-23T13:41:40.921Z,47.90
2023-08-23T13:44:08.701Z,47.25
2023-08-23T13:46:38.211Z,46.23
2023-08-23T13:49:05.925Z,47.50
2023-08-23T13:51:33.549Z,47.84
2023-08-23T13:54:01.276Z,48.19
2023-08-23T13:56:28.900Z,49.07
2023-08-23T13:58:57.991Z,47.77
2023-08-23T14:01:25.666Z,49.05
2023-08-23T14:03:54.809Z,49.78
2023-08-23T14:06:22.480Z,49.43
2023-08-23T14:08:50.740Z,49.54
2023-08-23T14:11:18.452Z,49.31
2023-08-23T14:13:46.021Z,48.18
2023-08-23T14:16:13.745Z,48.15
2023-08-23T14:18:41.839Z,48.15
2023-08-23T14:21:10.927Z,47.70
2023-08-23T14:23:38.661Z,47.80
2023-08-23T14:26:08.489Z,48.36
2023-08-23T14:28:37.154Z,47.83
2023-08-23T14:31:07.461Z,46.53
2023-08-23T14:33:35.271Z,45.47
2023-08-23T14:36:02.922Z,45.76
2023-08-23T14:38:32.015Z,47.19
2023-08-23T14:40:59.795Z,46.32
2023-08-23T14:43:27.466Z,46.64
2023-08-23T14:45:55.127Z,46.08
2023-08-23T14:48:22.788Z,46.48
2023-08-23T14:50:52.649Z,46.07
2023-08-23T14:53:20.330Z,46.66
2023-08-23T14:55:53.032Z,47.26
2023-08-23T14:58:22.910Z,47.50
2023-08-23T15:00:50.547Z,47.75
2023-08-23T15:03:18.212Z,48.86
2023-08-23T15:05:45.892Z,47.54
2023-08-23T15:08:13.574Z,47.71
2023-08-23T15:10:41.187Z,48.67
2023-08-23T15:13:10.243Z,48.15
2023-08-23T15:15:39.258Z,48.21
2023-08-23T15:18:07.672Z,49.11
2023-08-23T15:20:35.580Z,47.49
2023-08-23T15:23:04.423Z,47.53
2023-08-23T15:25:34.193Z,47.20
2023-08-23T15:28:02.015Z,48.35
2023-08-23T15:30:31.333Z,50.21
2023-08-23T15:32:59.865Z,48.65
2023-08-23T15:35:28.091Z,47.62
2023-08-23T15:37:55.706Z,46.78
2023-08-23T15:40:23.565Z,47.43
2023-08-23T15:42:51.229Z,48.44
2023-08-23T15:45:19.799Z,47.97
2023-08-23T15:47:51.750Z,45.14
2023-08-23T15:50:21.996Z,44.99
2023-08-23T15:52:49.646Z,43.98
2023-08-23T15:55:17.290Z,43.80
2023-08-23T15:57:44.905Z,43.13
2023-08-23T16:00:13.746Z,44.00
2023-08-23T16:02:41.490Z,43.67
2023-08-23T16:05:12.053Z,43.86
2023-08-23T16:07:39.853Z,44.66
2023-08-23T16:10:11.055Z,44.80
2023-08-23T16:12:38.903Z,44.49
2023-08-23T16:15:07.772Z,45.90
2023-08-23T16:17:37.257Z,44.94
2023-08-23T16:20:08.916Z,45.40
2023-08-23T16:22:38.028Z,46.49
2023-08-23T16:25:06.114Z,48.22
2023-08-23T16:27:33.865Z,47.85
2023-08-23T16:30:02.372Z,48.37
2023-08-23T16:32:30.174Z,48.25
2023-08-23T16:34:57.821Z,49.27
2023-08-23T16:37:25.431Z,48.76
2023-08-23T16:39:54.422Z,47.40
2023-08-23T16:42:22.020Z,46.55
2023-08-23T16:44:49.673Z,48.37
2023-08-23T16:47:17.396Z,49.72
2023-08-23T16:49:45.119Z,51.47
2023-08-23T16:52:12.755Z,50.28
2023-08-23T16:54:40.396Z,49.44
2023-08-23T16:57:09.364Z,47.63
2023-08-23T16:59:36.992Z,48.03
2023-08-23T17:02:04.620Z,48.08
2023-08-23T17:04:32.230Z,47.66
2023-08-23T17:06:59.929Z,47.09
2023-08-23T17:09:27.616Z,47.44
2023-08-23T17:11:55.228Z,48.12
2023-08-23T17:14:24.310Z,49.23
2023-08-23T17:16:52.071Z,47.09
2023-08-23T17:19:20.145Z,46.93
2023-08-23T17:21:48.081Z,48.82
2023-08-23T17:24:15.732Z,48.16
2023-08-23T17:26:48.505Z,47.79
2023-08-23T17:29:16.112Z,49.53
2023-08-23T17:31:45.074Z,50.96
2023-08-23T17:34:12.682Z,51.59
2023-08-23T17:36:40.331Z,52.17
2023-08-23T17:39:07.969Z,54.53
2023-08-23T17:41:36.739Z,54.01
2023-08-23T17:44:04.466Z,55.10
2023-08-23T17:46:39.304Z,54.09
2023-08-23T17:49:08.885Z,55.77
2023-08-23T17:51:37.804Z,57.67
2023-08-23T17:54:08.016Z,60.79
2023-08-23T17:56:35.998Z,60.94
2023-08-23T17:59:03.900Z,64.04
2023-08-23T18:01:32.032Z,63.62
2023-08-23T18:03:59.664Z,65.29
2023-08-23T18:06:29.561Z,65.17
2023-08-23T18:08:57.190Z,65.83
2023-08-23T18:11:25.661Z,66.94
2023-08-23T18:13:53.317Z,65.61
2023-08-23T18:16:21.217Z,69.65
2023-08-23T18:18:48.872Z,69.37
2023-08-23T18:21:17.278Z,68.79
2023-08-23T18:23:46.240Z,70.46
2023-08-23T18:26:14.002Z,70.66
2023-08-23T18:28:41.625Z,70.89
2023-08-23T18:31:09.397Z,71.02
2023-08-23T18:33:37.067Z,73.58
2023-08-23T18:36:05.213Z,72.63
2023-08-23T18:38:32.853Z,73.76
2023-08-23T18:41:04.992Z,74.44
2023-08-23T18:43:33.648Z,74.82
2023-08-23T18:46:01.289Z,75.49
2023-08-23T18:48:29.198Z,76.62
2023-08-23T18:51:00.505Z,75.77
2023-08-23T18:53:35.039Z,76.45
2023-08-23T18:56:03.367Z,77.96
2023-08-23T18:58:32.533Z,79.04
2023-08-23T19:01:00.303Z,78.55
2023-08-23T19:03:29.141Z,78.67
2023-08-23T19:05:57.382Z,79.15
2023-08-23T19:08:24.995Z,81.91
2023-08-23T19:10:52.648Z,82.43
2023-08-23T19:13:20.378Z,80.63
2023-08-23T19:15:49.373Z,82.19
2023-08-23T19:18:17.116Z,82.26
2023-08-23T19:20:44.883Z,83.02
2023-08-23T19:23:12.510Z,84.23
2023-08-23T19:25:42.000Z,85.09
2023-08-23T19:28:09.598Z,85.34
2023-08-23T19:30:37.258Z,86.65
2023-08-23T19:33:06.381Z,85.70
2023-08-23T19:35:44.024Z,88.79
2023-08-23T19:38:12.143Z,88.54
2023-08-23T19:40:39.880Z,89.50
2023-08-23T19:43:07.536Z,89.78
2023-08-23T19:45:35.623Z,90.32
2023-08-23T19:48:17.101Z,91.93
2023-08-23T19:50:52.647Z,92.80
2023-08-23T19:53:20.312Z,92.22
2023-08-23T19:55:47.939Z,92.86
2023-08-23T19:58:16.663Z,92.01
2023-08-23T20:00:46.503Z,93.15
2023-08-23T20:03:14.213Z,93.28
2023-08-23T20:05:44.776Z,93.81
2023-08-23T20:08:13.747Z,92.76
2023-08-23T20:13:26.889Z,94.10
2023-08-23T20:15:54.667Z,94.38
2023-08-23T20:18:22.286Z,94.94
2023-08-23T20:20:50.001Z,95.23
2023-08-23T20:23:19.707Z,95.78
2023-08-23T20:25:47.342Z,96.25
2023-08-23T20:28:14.930Z,96.64
2023-08-23T20:30:43.430Z,97.60
2023-08-23T20:33:11.067Z,97.26
2023-08-23T20:35:38.721Z,97.74
2023-08-23T20:38:06.820Z,98.26
2023-08-23T20:40:35.824Z,97.99
2023-08-23T20:43:05.480Z,98.99
2023-08-23T20:45:33.182Z,99.83
2023-08-23T20:48:00.839Z,99.61
2023-08-23T20:50:28.842Z,99.61
2023-08-23T20:52:56.651Z,99.70
2023-08-23T20:55:24.283Z,100.00
2023-08-23T20:57:53.288Z,100.00
2023-08-23T21:00:20.966Z,100.00
2023-08-23T21:02:48.584Z,100.00
2023-08-23T21:05:16.359Z,100.00
2023-08-23T21:07:43.942Z,100.00
2023-08-23T21:10:11.909Z,100.00
2023-08-23T21:12:39.618Z,100.00
2023-08-23T21:15:09.563Z,100.00
2023-08-23T21:17:37.168Z,100.00
2023-08-23T21:20:07.159Z,100.00
2023-08-23T21:22:40.623Z,100.00
2023-08-23T21:25:09.125Z,100.00
2023-08-23T21:27:36.773Z,100.00
2023-08-23T21:30:08.479Z,100.00
2023-08-23T21:32:37.582Z,100.00
2023-08-23T21:35:08.148Z,100.00
2023-08-23T21:37:37.552Z,100.00
2023-08-23T21:40:05.853Z,100.00
2023-08-23T21:42:33.703Z,100.00
2023-08-23T21:45:01.400Z,100.00
2023-08-23T21:47:29.338Z,100.00
2023-08-23T21:49:58.654Z,100.00
2023-08-23T21:52:27.043Z,100.00
2023-08-23T21:54:54.843Z,100.00
2023-08-23T21:57:22.488Z,100.00
2023-08-23T21:59:50.128Z,100.00
2023-08-23T22:02:20.369Z,100.00
2023-08-23T22:04:48.032Z,100.00
2023-08-23T22:07:17.979Z,100.00
2023-08-23T22:09:45.706Z,100.00
2023-08-23T22:12:13.371Z,100.00
2023-08-23T22:14:41.018Z,100.00
2023-08-23T22:17:10.224Z,100.00
2023-08-23T22:19:37.860Z,100.00
2023-08-23T22:22:05.491Z,100.00
2023-08-23T22:24:34.501Z,100.00
2023-08-23T22:27:04.682Z,100.00
2023-08-23T22:29:33.322Z,100.00
2023-08-23T22:32:01.027Z,100.00
2023-08-23T22:34:28.721Z,100.00
2023-08-23T22:36:56.639Z,100.00
2023-08-23T22:39:24.305Z,100.00
2023-08-23T22:41:53.308Z,100.00
2023-08-23T22:44:20.951Z,100.00
2023-08-23T22:46:48.636Z,100.00
2023-08-23T22:49:19.071Z,100.00
2023-08-23T22:51:46.753Z,100.00
2023-08-23T22:54:14.428Z,100.00
2023-08-23T22:56:42.052Z,100.00
2023-08-23T22:59:11.023Z,100.00
2023-08-23T23:01:38.706Z,100.00
2023-08-23T23:04:06.419Z,100.00
2023-08-23T23:06:34.040Z,100.00
2023-08-23T23:09:01.674Z,100.00
2023-08-23T23:11:29.477Z,100.00
2023-08-23T23:13:57.085Z,100.00
2023-08-23T23:16:26.282Z,100.00
2023-08-23T23:18:53.953Z,100.00
2023-08-23T23:21:21.598Z,100.00
2023-08-23T23:23:49.243Z,100.00
2023-08-23T23:26:17.251Z,100.00
2023-08-23T23:28:45.190Z,100.00
2023-08-23T23:31:14.767Z,100.00
2023-08-23T23:33:45.290Z,100.00
2023-08-23T23:36:13.109Z,100.00
2023-08-23T23:38:44.175Z,100.00
2023-08-23T23:41:12.196Z,100.00
2023-08-23T23:43:39.989Z,100.00
2023-08-23T23:46:07.676Z,100.00
2023-08-23T23:48:35.393Z,100.00
2023-08-23T23:51:04.505Z,100.00
2023-08-23T23:53:32.124Z,100.00
2023-08-23T23:55:59.704Z,100.00
2023-08-23T23:58:27.311Z,100.00
